V.b Algeciras — ECCR — position and weather

sailwx.info

Track history (hours):
 
Tides and Currents Weather Stations Pressure Air Temp Water Temp Dewpoint Dewpoint Depression Visibility Wind Speed Wind Dir Waves Ship Positions

V.b Algeciras

Last reported at 2017-Jun-25 03:29 UTC. Time now 2017-Jun-25 03:44 UTC.
Position N 36°08' W 005°24'.

Length 30 m; draft 5.1 m.

Type: Tug. MMSI: 224121250.

Date/timePositionNaut miles runAvg speedWind from/ knotsBaromVisibWave heightAir tempDewpointWater temp
2017-Jun-25 03:29N 36°08' W 005°24'1 1.6
2017-Jun-25 02:56N 36°08' W 005°25'0 0.0
2017-Jun-25 02:30N 36°08' W 005°25'0 0.0
2017-Jun-25 02:00N 36°08' W 005°25'0 0.0
2017-Jun-24 23:53N 36°08' W 005°25'0 0.0
2017-Jun-24 22:52N 36°08' W 005°25'0 0.0
2017-Jun-24 22:30N 36°08' W 005°25'0 0.3
2017-Jun-24 22:00N 36°08' W 005°25'0 0.4
2017-Jun-24 21:13N 36°08' W 005°26'0 0.4
2017-Jun-24 20:38N 36°08' W 005°26'0 0.0
2017-Jun-24 20:30N 36°08' W 005°26'0 0.0
2017-Jun-24 19:57N 36°08' W 005°26'0 0.0
2017-Jun-24 19:30N 36°08' W 005°26'0 0.0
2017-Jun-24 15:44N 36°08' W 005°26'0 0.0
2017-Jun-24 15:09N 36°08' W 005°26'0 0.0
2017-Jun-24 15:00N 36°08' W 005°26'0 0.0
2017-Jun-24 14:30N 36°08' W 005°26'0 0.0
2017-Jun-24 13:15N 36°08' W 005°26'0 0.0
2017-Jun-24 12:59N 36°08' W 005°26'0 0.1
2017-Jun-24 09:28N 36°08' W 005°26'0 0.5
2017-Jun-24 08:56N 36°08' W 005°26'0 0.0
2017-Jun-24 08:30N 36°08' W 005°26'0 0.0
2017-Jun-24 08:00N 36°08' W 005°26'0 0.0
2017-Jun-24 07:19N 36°08' W 005°26'0 0.0
2017-Jun-24 06:59N 36°08' W 005°26'0 0.0
2017-Jun-24 06:30N 36°08' W 005°26'0 0.0
2017-Jun-24 06:00N 36°08' W 005°26'0 1.0
2017-Jun-24 05:31N 36°08' W 005°25'0 0.8
2017-Jun-24 04:58N 36°08' W 005°25'0 0.6
2017-Jun-24 04:30N 36°08' W 005°25'0 0.8
2017-Jun-24 03:55N 36°08' W 005°26'0 0.0
2017-Jun-24 03:29N 36°08' W 005°26'0 0.0
2017-Jun-24 02:58N 36°08' W 005°26'0 0.0
2017-Jun-24 02:30N 36°08' W 005°26'0 0.0
2017-Jun-24 00:13N 36°08' W 005°26'0 0.0
2017-Jun-24 00:00N 36°08' W 005°26'0 0.0
2017-Jun-23 23:29N 36°08' W 005°26'0 0.7
2017-Jun-23 23:01N 36°08' W 005°25'0 0.6
2017-Jun-23 22:30N 36°08' W 005°25'1 1.9
2017-Jun-23 21:58N 36°08' W 005°24'1 2.9
2017-Jun-23 21:30N 36°08' W 005°26'0 0.0
2017-Jun-23 21:00N 36°08' W 005°26'0 0.0
2017-Jun-23 20:23N 36°08' W 005°26'0 0.0
2017-Jun-23 19:58N 36°08' W 005°26'0 0.5
2017-Jun-23 19:30N 36°08' W 005°26'0 0.2
2017-Jun-23 18:17N 36°08' W 005°26'0 0.5
2017-Jun-23 17:59N 36°08' W 005°26'0 0.1
2017-Jun-23 15:54N 36°08' W 005°26'3 6.4
2017-Jun-23 15:31N 36°10' W 005°24'1 1.8
2017-Jun-23 15:00N 36°10' W 005°23'0 0.0
2017-Jun-23 14:30N 36°10' W 005°23'0 0.0
2017-Jun-23 13:30N 36°10' W 005°23'0 0.0
2017-Jun-23 13:00N 36°10' W 005°23'0 0.0
2017-Jun-23 11:55N 36°10' W 005°23'0 0.0
2017-Jun-23 10:57N 36°10' W 005°23'0 0.0
2017-Jun-23 10:30N 36°10' W 005°23'0 0.0
2017-Jun-23 09:57N 36°10' W 005°23'0 0.0
2017-Jun-23 09:30N 36°10' W 005°23'3 0.3
2017-Jun-23 02:03N 36°09' W 005°25'0 4.0
2017-Jun-23 02:00N 36°09' W 005°25'1 0.6
2017-Jun-23 00:21N 36°08' W 005°26'0 0.0
2017-Jun-22 23:55N 36°08' W 005°26'0 0.0
2017-Jun-22 23:30N 36°08' W 005°26'0 0.8
2017-Jun-22 22:59N 36°08' W 005°25'0 0.6
2017-Jun-22 22:27N 36°08' W 005°25'1 1.1
2017-Jun-22 21:55N 36°08' W 005°26'1 0.0
2017-Jun-22 07:54N 36°08' W 005°25'1 0.4
2017-Jun-22 05:01N 36°08' W 005°26'0 1.5
2017-Jun-22 05:00N 36°08' W 005°26'2 2.9
2017-Jun-22 04:26N 36°09' W 005°24'1 0.9
2017-Jun-22 02:49N 36°08' W 005°26'0 0.8
2017-Jun-22 02:22N 36°08' W 005°26'0 0.2
2017-Jun-22 01:57N 36°08' W 005°26'0 0.0
2017-Jun-21 01:57N 36°09' W 005°26'1 0.0
2017-Jun-20 02:17N 36°08' W 005°26'0 0.8
2017-Jun-20 01:58N 36°08' W 005°26'0 0.2
2017-Jun-20 00:31N 36°09' W 005°26'0 0.0
2017-Jun-18 23:12N 36°08' W 005°26'0 0.0
2017-Jun-18 23:00N 36°08' W 005°26'0 0.1
2017-Jun-18 19:00N 36°08' W 005°26'1 1.1
2017-Jun-18 18:28N 36°08' W 005°25'1 0.1
2017-Jun-18 11:04N 36°08' W 005°26'0 0.0
2017-Jun-18 10:59N 36°08' W 005°26'0 0.0
2017-Jun-18 06:26N 36°08' W 005°25'1 0.0
2017-Jun-17 17:38N 36°08' W 005°25'0 0.1
2017-Jun-17 17:29N 36°08' W 005°25'1 0.7
2017-Jun-17 16:37N 36°08' W 005°25'0 0.0
2017-Jun-17 16:26N 36°08' W 005°25'0 0.0
2017-Jun-17 15:54N 36°08' W 005°25'0 0.0
2017-Jun-17 15:28N 36°08' W 005°25'0 0.0
2017-Jun-17 14:53N 36°08' W 005°25'0 0.0
2017-Jun-17 14:27N 36°08' W 005°25'0 0.0
2017-Jun-17 13:31N 36°08' W 005°25'0 0.0
2017-Jun-17 12:56N 36°08' W 005°25'1 1.3
2017-Jun-17 12:30N 36°08' W 005°25'0 0.1
2017-Jun-17 03:20N 36°08' W 005°25'0 0.0
2017-Jun-17 01:46N 36°08' W 005°25'0 0.0
2017-Jun-17 01:29N 36°08' W 005°25'0 0.0
2017-Jun-17 01:00N 36°08' W 005°25'0 0.0
2017-Jun-17 00:30N 36°08' W 005°25'0 0.0
2017-Jun-17 00:00N 36°08' W 005°25'0 0.0
2017-Jun-16 23:12N 36°08' W 005°25'0 0.0
2017-Jun-16 22:59N 36°08' W 005°25'0 0.0
2017-Jun-16 22:29N 36°08' W 005°25'0 0.0
2017-Jun-16 21:50N 36°08' W 005°25'0 0.0
2017-Jun-16 21:30N 36°08' W 005°25'0 0.0
2017-Jun-16 01:01N 36°08' W 005°25'0 2.3
2017-Jun-16 01:00N 36°08' W 005°25'0 0.0
2017-Jun-16 00:30N 36°08' W 005°25'0 0.9
2017-Jun-15 23:58N 36°08' W 005°25'1 0.2
2017-Jun-15 17:20N 36°08' W 005°26'1 0.8
2017-Jun-15 16:36N 36°08' W 005°25'0 0.0
2017-Jun-15 16:18N 36°08' W 005°25'0 0.0
2017-Jun-15 16:01N 36°08' W 005°25'3 1.3
2017-Jun-15 14:00N 36°10' W 005°24'3 4.6
2017-Jun-15 13:27N 36°08' W 005°25'0 0.0
2017-Jun-15 12:17N 36°08' W 005°25'0 0.0
2017-Jun-15 12:00N 36°08' W 005°25'0 0.0
2017-Jun-15 11:30N 36°08' W 005°25'0 0.0
2017-Jun-15 10:05N 36°08' W 005°25'1 7.6
2017-Jun-15 10:00N 36°08' W 005°26'  
Track history (hours):
 
Tides and Currents Weather Stations Pressure Air Temp Water Temp Dewpoint Dewpoint Depression Visibility Wind Speed Wind Dir Waves Ship Positions

V.b Algeciras

Last reported at 2017-Jun-25 03:29 UTC. Time now 2017-Jun-25 03:44 UTC.
Position N 36°08' W 005°24'.

Length 30 m; draft 5.1 m.

Type: Tug. MMSI: 224121250.

Date/timePositionNaut miles runAvg speedWind from/ knotsBaromVisibWave heightAir tempDewpointWater temp
2017-Jun-25 03:29N 36°08' W 005°24'1 1.6
2017-Jun-25 02:56N 36°08' W 005°25'0 0.0
2017-Jun-25 02:30N 36°08' W 005°25'0 0.0
2017-Jun-25 02:00N 36°08' W 005°25'0 0.0
2017-Jun-24 23:53N 36°08' W 005°25'0 0.0
2017-Jun-24 22:52N 36°08' W 005°25'0 0.0
2017-Jun-24 22:30N 36°08' W 005°25'0 0.3
2017-Jun-24 22:00N 36°08' W 005°25'0 0.4
2017-Jun-24 21:13N 36°08' W 005°26'0 0.4
2017-Jun-24 20:38N 36°08' W 005°26'0 0.0
2017-Jun-24 20:30N 36°08' W 005°26'0 0.0
2017-Jun-24 19:57N 36°08' W 005°26'0 0.0
2017-Jun-24 19:30N 36°08' W 005°26'0 0.0
2017-Jun-24 15:44N 36°08' W 005°26'0 0.0
2017-Jun-24 15:09N 36°08' W 005°26'0 0.0
2017-Jun-24 15:00N 36°08' W 005°26'0 0.0
2017-Jun-24 14:30N 36°08' W 005°26'0 0.0
2017-Jun-24 13:15N 36°08' W 005°26'0 0.0
2017-Jun-24 12:59N 36°08' W 005°26'0 0.1
2017-Jun-24 09:28N 36°08' W 005°26'0 0.5
2017-Jun-24 08:56N 36°08' W 005°26'0 0.0
2017-Jun-24 08:30N 36°08' W 005°26'0 0.0
2017-Jun-24 08:00N 36°08' W 005°26'0 0.0
2017-Jun-24 07:19N 36°08' W 005°26'0 0.0
2017-Jun-24 06:59N 36°08' W 005°26'0 0.0
2017-Jun-24 06:30N 36°08' W 005°26'0 0.0
2017-Jun-24 06:00N 36°08' W 005°26'0 1.0
2017-Jun-24 05:31N 36°08' W 005°25'0 0.8
2017-Jun-24 04:58N 36°08' W 005°25'0 0.6
2017-Jun-24 04:30N 36°08' W 005°25'0 0.8
2017-Jun-24 03:55N 36°08' W 005°26'0 0.0
2017-Jun-24 03:29N 36°08' W 005°26'0 0.0
2017-Jun-24 02:58N 36°08' W 005°26'0 0.0
2017-Jun-24 02:30N 36°08' W 005°26'0 0.0
2017-Jun-24 00:13N 36°08' W 005°26'0 0.0
2017-Jun-24 00:00N 36°08' W 005°26'0 0.0
2017-Jun-23 23:29N 36°08' W 005°26'0 0.7
2017-Jun-23 23:01N 36°08' W 005°25'0 0.6
2017-Jun-23 22:30N 36°08' W 005°25'1 1.9
2017-Jun-23 21:58N 36°08' W 005°24'1 2.9
2017-Jun-23 21:30N 36°08' W 005°26'0 0.0
2017-Jun-23 21:00N 36°08' W 005°26'0 0.0
2017-Jun-23 20:23N 36°08' W 005°26'0 0.0
2017-Jun-23 19:58N 36°08' W 005°26'0 0.5
2017-Jun-23 19:30N 36°08' W 005°26'0 0.2
2017-Jun-23 18:17N 36°08' W 005°26'0 0.5
2017-Jun-23 17:59N 36°08' W 005°26'0 0.1
2017-Jun-23 15:54N 36°08' W 005°26'3 6.4
2017-Jun-23 15:31N 36°10' W 005°24'1 1.8
2017-Jun-23 15:00N 36°10' W 005°23'0 0.0
2017-Jun-23 14:30N 36°10' W 005°23'0 0.0
2017-Jun-23 13:30N 36°10' W 005°23'0 0.0
2017-Jun-23 13:00N 36°10' W 005°23'0 0.0
2017-Jun-23 11:55N 36°10' W 005°23'0 0.0
2017-Jun-23 10:57N 36°10' W 005°23'0 0.0
2017-Jun-23 10:30N 36°10' W 005°23'0 0.0
2017-Jun-23 09:57N 36°10' W 005°23'0 0.0
2017-Jun-23 09:30N 36°10' W 005°23'3 0.3
2017-Jun-23 02:03N 36°09' W 005°25'0 4.0
2017-Jun-23 02:00N 36°09' W 005°25'1 0.6
2017-Jun-23 00:21N 36°08' W 005°26'0 0.0
2017-Jun-22 23:55N 36°08' W 005°26'0 0.0
2017-Jun-22 23:30N 36°08' W 005°26'0 0.8
2017-Jun-22 22:59N 36°08' W 005°25'0 0.6
2017-Jun-22 22:27N 36°08' W 005°25'1 1.1
2017-Jun-22 21:55N 36°08' W 005°26'1 0.0
2017-Jun-22 07:54N 36°08' W 005°25'1 0.4
2017-Jun-22 05:01N 36°08' W 005°26'0 1.5
2017-Jun-22 05:00N 36°08' W 005°26'2 2.9
2017-Jun-22 04:26N 36°09' W 005°24'1 0.9
2017-Jun-22 02:49N 36°08' W 005°26'0 0.8
2017-Jun-22 02:22N 36°08' W 005°26'0 0.2
2017-Jun-22 01:57N 36°08' W 005°26'0 0.0
2017-Jun-21 01:57N 36°09' W 005°26'1 0.0
2017-Jun-20 02:17N 36°08' W 005°26'0 0.8
2017-Jun-20 01:58N 36°08' W 005°26'0 0.2
2017-Jun-20 00:31N 36°09' W 005°26'0 0.0
2017-Jun-18 23:12N 36°08' W 005°26'0 0.0
2017-Jun-18 23:00N 36°08' W 005°26'0 0.1
2017-Jun-18 19:00N 36°08' W 005°26'1 1.1
2017-Jun-18 18:28N 36°08' W 005°25'1 0.1
2017-Jun-18 11:04N 36°08' W 005°26'0 0.0
2017-Jun-18 10:59N 36°08' W 005°26'0 0.0
2017-Jun-18 06:26N 36°08' W 005°25'1 0.0
2017-Jun-17 17:38N 36°08' W 005°25'0 0.1
2017-Jun-17 17:29N 36°08' W 005°25'1 0.7
2017-Jun-17 16:37N 36°08' W 005°25'0 0.0
2017-Jun-17 16:26N 36°08' W 005°25'0 0.0
2017-Jun-17 15:54N 36°08' W 005°25'0 0.0
2017-Jun-17 15:28N 36°08' W 005°25'0 0.0
2017-Jun-17 14:53N 36°08' W 005°25'0 0.0
2017-Jun-17 14:27N 36°08' W 005°25'0 0.0
2017-Jun-17 13:31N 36°08' W 005°25'0 0.0
2017-Jun-17 12:56N 36°08' W 005°25'1 1.3
2017-Jun-17 12:30N 36°08' W 005°25'0 0.1
2017-Jun-17 03:20N 36°08' W 005°25'0 0.0
2017-Jun-17 01:46N 36°08' W 005°25'0 0.0
2017-Jun-17 01:29N 36°08' W 005°25'0 0.0
2017-Jun-17 01:00N 36°08' W 005°25'0 0.0
2017-Jun-17 00:30N 36°08' W 005°25'0 0.0
2017-Jun-17 00:00N 36°08' W 005°25'0 0.0
2017-Jun-16 23:12N 36°08' W 005°25'0 0.0
2017-Jun-16 22:59N 36°08' W 005°25'0 0.0
2017-Jun-16 22:29N 36°08' W 005°25'0 0.0
2017-Jun-16 21:50N 36°08' W 005°25'0 0.0
2017-Jun-16 21:30N 36°08' W 005°25'0 0.0
2017-Jun-16 01:01N 36°08' W 005°25'0 2.3
2017-Jun-16 01:00N 36°08' W 005°25'0 0.0
2017-Jun-16 00:30N 36°08' W 005°25'0 0.9
2017-Jun-15 23:58N 36°08' W 005°25'1 0.2
2017-Jun-15 17:20N 36°08' W 005°26'1 0.8
2017-Jun-15 16:36N 36°08' W 005°25'0 0.0
2017-Jun-15 16:18N 36°08' W 005°25'0 0.0
2017-Jun-15 16:01N 36°08' W 005°25'3 1.3
2017-Jun-15 14:00N 36°10' W 005°24'3 4.6
2017-Jun-15 13:27N 36°08' W 005°25'0 0.0
2017-Jun-15 12:17N 36°08' W 005°25'0 0.0
2017-Jun-15 12:00N 36°08' W 005°25'0 0.0
2017-Jun-15 11:30N 36°08' W 005°25'0 0.0
2017-Jun-15 10:05N 36°08' W 005°25'1 7.6
2017-Jun-15 10:00N 36°08' W 005°26'  

Dump ship's entire track history